sensor_id;sensor_type;location;lat;lon;timestamp;pressure;altitude;pressure_sealevel;temperature;humidity
13800;BME280;6971;50.028;9.258;2023-05-24T00:03:23;99860.25;;;7.42;100.00
13800;BME280;6971;50.028;9.258;2023-05-24T00:08:24;99854.28;;;7.38;100.00
13800;BME280;6971;50.028;9.258;2023-05-24T00:13:24;99861.75;;;7.24;100.00
13800;BME280;6971;50.028;9.258;2023-05-24T00:18:26;99858.88;;;7.04;100.00
13800;BME280;6971;50.028;9.258;2023-05-24T00:23:26;99857.59;;;6.89;100.00
13800;BME280;6971;50.028;9.258;2023-05-24T00:28:26;99859.69;;;6.78;100.00
13800;BME280;6971;50.028;9.258;2023-05-24T00:33:27;99858.34;;;6.64;100.00
13800;BME280;6971;50.028;9.258;2023-05-24T00:38:27;99860.34;;;6.56;100.00
13800;BME280;6971;50.028;9.258;2023-05-24T00:43:28;99851.13;;;6.44;100.00
13800;BME280;6971;50.028;9.258;2023-05-24T00:48:28;99840.91;;;6.35;100.00
13800;BME280;6971;50.028;9.258;2023-05-24T00:53:29;99846.56;;;6.21;100.00
13800;BME280;6971;50.028;9.258;2023-05-24T00:58:31;99842.41;;;6.13;100.00
13800;BME280;6971;50.028;9.258;2023-05-24T01:03:31;99854.00;;;6.05;100.00
13800;BME280;6971;50.028;9.258;2023-05-24T01:13:53;99849.78;;;5.99;100.00
13800;BME280;6971;50.028;9.258;2023-05-24T01:19:04;99855.16;;;5.93;100.00
13800;BME280;6971;50.028;9.258;2023-05-24T01:24:20;99851.84;;;5.87;100.00
13800;BME280;6971;50.028;9.258;2023-05-24T01:29:25;99840.66;;;5.82;100.00
13800;BME280;6971;50.028;9.258;2023-05-24T01:34:26;99847.81;;;5.75;100.00
13800;BME280;6971;50.028;9.258;2023-05-24T01:39:28;99845.16;;;5.77;100.00
13800;BME280;6971;50.028;9.258;2023-05-24T01:55:16;99831.88;;;5.83;100.00
13800;BME280;6971;50.028;9.258;2023-05-24T02:00:18;99831.59;;;5.94;100.00
13800;BME280;6971;50.028;9.258;2023-05-24T02:05:20;99835.69;;;6.05;100.00
13800;BME280;6971;50.028;9.258;2023-05-24T02:10:20;99835.56;;;6.09;100.00
13800;BME280;6971;50.028;9.258;2023-05-24T02:15:20;99843.41;;;6.09;100.00
13800;BME280;6971;50.028;9.258;2023-05-24T02:20:21;99833.59;;;6.18;100.00
13800;BME280;6971;50.028;9.258;2023-05-24T02:25:24;99841.16;;;6.27;100.00
13800;BME280;6971;50.028;9.258;2023-05-24T02:30:24;99844.53;;;6.31;100.00
13800;BME280;6971;50.028;9.258;2023-05-24T02:35:25;99849.53;;;6.38;100.00
13800;BME280;6971;50.028;9.258;2023-05-24T02:40:25;99845.06;;;6.42;100.00
13800;BME280;6971;50.028;9.258;2023-05-24T02:45:26;99845.91;;;6.43;100.00
13800;BME280;6971;50.028;9.258;2023-05-24T02:50:26;99844.13;;;6.45;100.00
13800;BME280;6971;50.028;9.258;2023-05-24T02:55:27;99842.41;;;6.44;100.00
13800;BME280;6971;50.028;9.258;2023-05-24T03:00:28;99845.13;;;6.40;100.00
13800;BME280;6971;50.028;9.258;2023-05-24T03:05:31;99843.22;;;6.46;100.00
13800;BME280;6971;50.028;9.258;2023-05-24T03:10:31;99846.97;;;6.37;100.00
13800;BME280;6971;50.028;9.258;2023-05-24T03:15:31;99837.31;;;6.39;100.00
13800;BME280;6971;50.028;9.258;2023-05-24T03:20:32;99843.78;;;6.27;100.00
13800;BME280;6971;50.028;9.258;2023-05-24T03:25:32;99845.25;;;6.36;100.00
13800;BME280;6971;50.028;9.258;2023-05-24T03:30:33;99847.91;;;6.34;100.00
13800;BME280;6971;50.028;9.258;2023-05-24T03:35:33;99841.88;;;6.32;100.00
13800;BME280;6971;50.028;9.258;2023-05-24T03:40:34;99841.78;;;6.35;100.00
13800;BME280;6971;50.028;9.258;2023-05-24T03:45:35;99838.94;;;6.43;100.00
13800;BME280;6971;50.028;9.258;2023-05-24T03:50:36;99848.09;;;6.58;100.00
13800;BME280;6971;50.028;9.258;2023-05-24T03:55:36;99841.22;;;6.54;100.00
13800;BME280;6971;50.028;9.258;2023-05-24T04:00:36;99842.03;;;6.56;100.00
13800;BME280;6971;50.028;9.258;2023-05-24T04:05:37;99837.53;;;6.61;100.00
13800;BME280;6971;50.028;9.258;2023-05-24T04:10:37;99839.03;;;6.69;100.00
13800;BME280;6971;50.028;9.258;2023-05-24T04:15:38;99846.47;;;6.54;100.00
13800;BME280;6971;50.028;9.258;2023-05-24T04:20:38;99850.50;;;6.64;100.00
13800;BME280;6971;50.028;9.258;2023-05-24T04:25:38;99849.78;;;6.59;100.00
13800;BME280;6971;50.028;9.258;2023-05-24T04:30:39;99859.88;;;6.43;100.00
13800;BME280;6971;50.028;9.258;2023-05-24T04:35:40;99859.84;;;6.45;100.00
13800;BME280;6971;50.028;9.258;2023-05-24T04:40:41;99869.09;;;6.26;100.00
13800;BME280;6971;50.028;9.258;2023-05-24T04:45:41;99876.22;;;6.21;100.00
13800;BME280;6971;50.028;9.258;2023-05-24T04:50:41;99882.28;;;6.23;100.00
13800;BME280;6971;50.028;9.258;2023-05-24T04:55:41;99883.75;;;6.32;100.00
13800;BME280;6971;50.028;9.258;2023-05-24T05:00:42;99890.69;;;6.33;100.00
13800;BME280;6971;50.028;9.258;2023-05-24T05:05:46;99890.66;;;6.35;100.00
13800;BME280;6971;50.028;9.258;2023-05-24T05:10:46;99899.28;;;6.38;100.00
13800;BME280;6971;50.028;9.258;2023-05-24T05:15:47;99900.75;;;6.49;100.00
13800;BME280;6971;50.028;9.258;2023-05-24T05:20:49;99896.81;;;6.92;100.00
13800;BME280;6971;50.028;9.258;2023-05-24T05:25:50;99907.91;;;6.72;100.00
13800;BME280;6971;50.028;9.258;2023-05-24T05:30:51;99903.59;;;6.70;100.00
13800;BME280;6971;50.028;9.258;2023-05-24T05:35:51;99911.38;;;6.73;100.00
13800;BME280;6971;50.028;9.258;2023-05-24T05:40:51;99913.16;;;6.72;100.00
13800;BME280;6971;50.028;9.258;2023-05-24T05:45:52;99907.75;;;6.77;100.00
13800;BME280;6971;50.028;9.258;2023-05-24T05:50:55;99917.13;;;6.86;100.00
13800;BME280;6971;50.028;9.258;2023-05-24T05:55:55;99927.06;;;7.03;100.00
13800;BME280;6971;50.028;9.258;2023-05-24T06:00:56;99924.84;;;7.17;100.00
13800;BME280;6971;50.028;9.258;2023-05-24T06:05:56;99932.06;;;7.38;100.00
13800;BME280;6971;50.028;9.258;2023-05-24T06:10:56;99935.22;;;7.49;99.13
13800;BME280;6971;50.028;9.258;2023-05-24T06:15:57;99928.09;;;7.53;97.46
13800;BME280;6971;50.028;9.258;2023-05-24T06:20:57;99930.63;;;7.56;97.55
13800;BME280;6971;50.028;9.258;2023-05-24T06:25:58;99930.72;;;7.53;96.52
13800;BME280;6971;50.028;9.258;2023-05-24T06:31:00;99937.38;;;7.63;93.85
13800;BME280;6971;50.028;9.258;2023-05-24T06:36:01;99937.38;;;7.63;92.95
13800;BME280;6971;50.028;9.258;2023-05-24T06:41:01;99940.56;;;7.71;90.46
13800;BME280;6971;50.028;9.258;2023-05-24T06:46:02;99935.81;;;7.83;91.53
13800;BME280;6971;50.028;9.258;2023-05-24T06:51:02;99940.06;;;7.87;89.00
13800;BME280;6971;50.028;9.258;2023-05-24T06:56:03;99930.38;;;8.15;88.81
13800;BME280;6971;50.028;9.258;2023-05-24T07:01:04;99932.91;;;8.16;87.47
13800;BME280;6971;50.028;9.258;2023-05-24T07:06:04;99929.59;;;8.36;82.07
13800;BME280;6971;50.028;9.258;2023-05-24T07:11:05;99937.97;;;8.46;82.13
13800;BME280;6971;50.028;9.258;2023-05-24T07:16:05;99946.81;;;8.44;79.44
13800;BME280;6971;50.028;9.258;2023-05-24T07:21:06;99941.72;;;8.65;81.00
13800;BME280;6971;50.028;9.258;2023-05-24T07:26:06;99939.72;;;8.71;78.92
13800;BME280;6971;50.028;9.258;2023-05-24T07:31:08;99954.19;;;8.82;79.29
13800;BME280;6971;50.028;9.258;2023-05-24T07:36:09;99955.78;;;9.10;79.93
13800;BME280;6971;50.028;9.258;2023-05-24T07:41:12;99957.22;;;9.17;77.61
13800;BME280;6971;50.028;9.258;2023-05-24T07:46:13;99963.31;;;10.25;76.52
13800;BME280;6971;50.028;9.258;2023-05-24T07:51:13;99977.50;;;10.62;71.62
13800;BME280;6971;50.028;9.258;2023-05-24T07:56:13;99981.78;;;11.03;69.86
13800;BME280;6971;50.028;9.258;2023-05-24T08:01:14;99985.22;;;11.05;68.41
13800;BME280;6971;50.028;9.258;2023-05-24T08:06:14;99977.13;;;11.82;64.33
13800;BME280;6971;50.028;9.258;2023-05-24T08:11:14;99983.19;;;13.03;61.66
13800;BME280;6971;50.028;9.258;2023-05-24T08:16:15;99974.13;;;13.08;59.78
13800;BME280;6971;50.028;9.258;2023-05-24T08:21:15;99980.59;;;13.50;58.70
13800;BME280;6971;50.028;9.258;2023-05-24T08:26:16;99979.31;;;12.09;61.06
13800;BME280;6971;50.028;9.258;2023-05-24T08:31:18;99983.34;;;11.64;63.59
13800;BME280;6971;50.028;9.258;2023-05-24T08:36:18;99982.66;;;10.84;65.19
13800;BME280;6971;50.028;9.258;2023-05-24T08:41:19;99988.50;;;10.72;65.38
13800;BME280;6971;50.028;9.258;2023-05-24T08:46:19;99989.63;;;11.05;66.66
13800;BME280;6971;50.028;9.258;2023-05-24T08:51:20;99991.19;;;10.70;65.96
13800;BME280;6971;50.028;9.258;2023-05-24T08:56:21;99990.50;;;10.86;66.90
13800;BME280;6971;50.028;9.258;2023-05-24T09:01:23;99992.69;;;10.76;66.20
13800;BME280;6971;50.028;9.258;2023-05-24T09:06:24;99990.75;;;11.18;66.69
13800;BME280;6971;50.028;9.258;2023-05-24T09:11:25;99984.88;;;11.50;64.21
13800;BME280;6971;50.028;9.258;2023-05-24T09:16:26;99971.47;;;12.42;61.17
13800;BME280;6971;50.028;9.258;2023-05-24T09:21:27;99979.28;;;13.88;58.09
13800;BME280;6971;50.028;9.258;2023-05-24T09:26:28;99992.28;;;13.62;58.50
13800;BME280;6971;50.028;9.258;2023-05-24T09:31:37;99992.38;;;13.28;56.26
13800;BME280;6971;50.028;9.258;2023-05-24T09:36:40;99988.00;;;12.63;56.86
13800;BME280;6971;50.028;9.258;2023-05-24T09:41:42;99997.56;;;13.46;58.77
13800;BME280;6971;50.028;9.258;2023-05-24T09:46:44;99985.28;;;13.61;55.94
13800;BME280;6971;50.028;9.258;2023-05-24T09:51:45;99989.16;;;14.01;56.46
13800;BME280;6971;50.028;9.258;2023-05-24T09:56:46;99988.81;;;14.07;55.09
13800;BME280;6971;50.028;9.258;2023-05-24T10:01:46;99986.88;;;14.98;52.88
13800;BME280;6971;50.028;9.258;2023-05-24T10:06:52;99987.00;;;15.09;53.08
13800;BME280;6971;50.028;9.258;2023-05-24T10:11:53;99982.00;;;15.32;51.79
13800;BME280;6971;50.028;9.258;2023-05-24T10:16:53;99989.97;;;15.05;50.41
13800;BME280;6971;50.028;9.258;2023-05-24T10:21:55;99984.03;;;15.29;49.94
13800;BME280;6971;50.028;9.258;2023-05-24T10:26:57;99982.19;;;15.57;51.20
13800;BME280;6971;50.028;9.258;2023-05-24T10:31:58;99980.69;;;15.52;49.33
13800;BME280;6971;50.028;9.258;2023-05-24T10:36:59;99975.88;;;16.00;49.13
13800;BME280;6971;50.028;9.258;2023-05-24T10:42:04;99974.13;;;15.58;51.16
13800;BME280;6971;50.028;9.258;2023-05-24T10:47:09;99972.59;;;15.69;49.09
13800;BME280;6971;50.028;9.258;2023-05-24T10:52:11;99968.53;;;15.63;49.25
13800;BME280;6971;50.028;9.258;2023-05-24T10:57:12;99952.63;;;16.67;46.86
13800;BME280;6971;50.028;9.258;2023-05-24T11:02:13;99950.25;;;16.75;47.65
13800;BME280;6971;50.028;9.258;2023-05-24T11:07:15;99950.97;;;16.53;48.01
13800;BME280;6971;50.028;9.258;2023-05-24T11:12:18;99952.88;;;16.64;46.80
13800;BME280;6971;50.028;9.258;2023-05-24T11:17:22;99951.25;;;18.08;45.04
13800;BME280;6971;50.028;9.258;2023-05-24T11:22:24;99948.34;;;16.77;45.50
13800;BME280;6971;50.028;9.258;2023-05-24T11:27:25;99945.09;;;16.98;45.25
13800;BME280;6971;50.028;9.258;2023-05-24T11:32:26;99946.09;;;17.21;43.49
13800;BME280;6971;50.028;9.258;2023-05-24T11:37:26;99933.50;;;17.23;42.32
13800;BME280;6971;50.028;9.258;2023-05-24T11:42:27;99926.09;;;17.16;41.34
13800;BME280;6971;50.028;9.258;2023-05-24T11:47:27;99927.19;;;16.76;43.19
13800;BME280;6971;50.028;9.258;2023-05-24T11:52:28;99935.22;;;17.60;41.91
13800;BME280;6971;50.028;9.258;2023-05-24T11:57:37;99931.81;;;16.85;43.94
13800;BME280;6971;50.028;9.258;2023-05-24T12:02:41;99922.59;;;17.51;42.44
13800;BME280;6971;50.028;9.258;2023-05-24T12:07:41;99924.41;;;17.86;41.84
13800;BME280;6971;50.028;9.258;2023-05-24T12:12:47;99921.47;;;17.78;41.96
13800;BME280;6971;50.028;9.258;2023-05-24T12:17:48;99913.19;;;17.70;41.78
13800;BME280;6971;50.028;9.258;2023-05-24T12:22:53;99916.41;;;17.75;42.67
13800;BME280;6971;50.028;9.258;2023-05-24T12:27:54;99903.13;;;16.27;44.59
13800;BME280;6971;50.028;9.258;2023-05-24T12:32:55;99900.91;;;17.08;45.03
13800;BME280;6971;50.028;9.258;2023-05-24T12:37:59;99902.44;;;16.87;43.66
13800;BME280;6971;50.028;9.258;2023-05-24T12:42:59;99901.69;;;17.22;42.13
13800;BME280;6971;50.028;9.258;2023-05-24T12:48:00;99895.69;;;17.43;41.50
13800;BME280;6971;50.028;9.258;2023-05-24T12:53:01;99895.78;;;16.92;40.64
13800;BME280;6971;50.028;9.258;2023-05-24T12:58:02;99892.72;;;16.86;42.84
13800;BME280;6971;50.028;9.258;2023-05-24T13:03:05;99887.41;;;16.11;43.91
13800;BME280;6971;50.028;9.258;2023-05-24T13:08:06;99887.88;;;16.79;41.54
13800;BME280;6971;50.028;9.258;2023-05-24T13:13:06;99882.25;;;16.34;42.52
13800;BME280;6971;50.028;9.258;2023-05-24T13:18:07;99880.88;;;17.27;41.69
13800;BME280;6971;50.028;9.258;2023-05-24T13:23:07;99875.72;;;16.88;41.31
13800;BME280;6971;50.028;9.258;2023-05-24T13:28:08;99873.75;;;16.28;42.56
13800;BME280;6971;50.028;9.258;2023-05-24T13:33:09;99880.41;;;16.84;44.19
13800;BME280;6971;50.028;9.258;2023-05-24T13:38:09;99867.53;;;16.41;44.09
13800;BME280;6971;50.028;9.258;2023-05-24T13:43:09;99870.09;;;16.55;44.20
13800;BME280;6971;50.028;9.258;2023-05-24T13:48:10;99871.94;;;16.42;42.55
13800;BME280;6971;50.028;9.258;2023-05-24T13:53:10;99868.97;;;15.82;42.88
13800;BME280;6971;50.028;9.258;2023-05-24T13:58:11;99881.25;;;15.97;43.11
13800;BME280;6971;50.028;9.258;2023-05-24T14:03:11;99877.78;;;15.69;41.94
13800;BME280;6971;50.028;9.258;2023-05-24T14:08:12;99879.75;;;15.52;42.69
13800;BME280;6971;50.028;9.258;2023-05-24T14:13:12;99883.91;;;15.44;42.75
13800;BME280;6971;50.028;9.258;2023-05-24T14:18:13;99879.56;;;15.43;42.97
13800;BME280;6971;50.028;9.258;2023-05-24T14:23:15;99885.00;;;15.13;43.02
13800;BME280;6971;50.028;9.258;2023-05-24T14:28:17;99874.97;;;15.32;44.69
13800;BME280;6971;50.028;9.258;2023-05-24T14:33:17;99882.22;;;15.43;45.24
13800;BME280;6971;50.028;9.258;2023-05-24T14:38:17;99873.84;;;15.21;46.46
13800;BME280;6971;50.028;9.258;2023-05-24T14:43:18;99876.38;;;15.10;45.19
13800;BME280;6971;50.028;9.258;2023-05-24T14:48:18;99873.63;;;15.11;45.04
13800;BME280;6971;50.028;9.258;2023-05-24T14:53:19;99882.84;;;15.33;45.32
13800;BME280;6971;50.028;9.258;2023-05-24T14:58:19;99877.09;;;15.52;46.14
13800;BME280;6971;50.028;9.258;2023-05-24T15:03:20;99882.66;;;15.49;45.39
13800;BME280;6971;50.028;9.258;2023-05-24T15:08:20;99880.72;;;15.38;45.01
13800;BME280;6971;50.028;9.258;2023-05-24T15:13:20;99873.13;;;15.19;45.84
13800;BME280;6971;50.028;9.258;2023-05-24T15:18:22;99875.13;;;15.16;47.83
13800;BME280;6971;50.028;9.258;2023-05-24T15:23:25;99868.53;;;15.08;47.51
13800;BME280;6971;50.028;9.258;2023-05-24T15:28:26;99868.09;;;15.01;47.74
13800;BME280;6971;50.028;9.258;2023-05-24T15:33:26;99868.00;;;15.16;48.51
13800;BME280;6971;50.028;9.258;2023-05-24T15:38:26;99862.59;;;15.18;47.92
13800;BME280;6971;50.028;9.258;2023-05-24T15:43:28;99867.88;;;15.05;48.76
13800;BME280;6971;50.028;9.258;2023-05-24T15:48:28;99858.78;;;15.09;47.27
13800;BME280;6971;50.028;9.258;2023-05-24T15:53:29;99861.91;;;14.73;49.10
13800;BME280;6971;50.028;9.258;2023-05-24T15:58:29;99855.63;;;14.74;50.27
13800;BME280;6971;50.028;9.258;2023-05-24T16:03:30;99849.16;;;14.51;49.65
13800;BME280;6971;50.028;9.258;2023-05-24T16:08:30;99862.16;;;14.27;48.88
13800;BME280;6971;50.028;9.258;2023-05-24T16:13:31;99859.03;;;14.34;50.16
13800;BME280;6971;50.028;9.258;2023-05-24T16:18:32;99868.84;;;14.47;49.74
13800;BME280;6971;50.028;9.258;2023-05-24T16:23:34;99865.94;;;14.37;51.74
13800;BME280;6971;50.028;9.258;2023-05-24T16:28:34;99865.28;;;14.33;51.17
13800;BME280;6971;50.028;9.258;2023-05-24T16:33:35;99868.03;;;14.32;53.75
13800;BME280;6971;50.028;9.258;2023-05-24T16:38:35;99862.94;;;13.85;51.67
13800;BME280;6971;50.028;9.258;2023-05-24T16:43:36;99862.75;;;14.03;52.47
13800;BME280;6971;50.028;9.258;2023-05-24T16:48:37;99862.75;;;14.17;50.68
13800;BME280;6971;50.028;9.258;2023-05-24T16:53:38;99863.88;;;13.99;55.79
13800;BME280;6971;50.028;9.258;2023-05-24T16:58:38;99861.78;;;14.18;52.15
13800;BME280;6971;50.028;9.258;2023-05-24T17:03:38;99865.94;;;14.22;52.01
13800;BME280;6971;50.028;9.258;2023-05-24T17:08:39;99862.50;;;14.64;51.70
13800;BME280;6971;50.028;9.258;2023-05-24T17:13:39;99864.88;;;14.54;51.32
13800;BME280;6971;50.028;9.258;2023-05-24T17:18:40;99863.44;;;14.78;51.77
13800;BME280;6971;50.028;9.258;2023-05-24T17:23:41;99861.72;;;14.62;50.67
13800;BME280;6971;50.028;9.258;2023-05-24T17:28:42;99871.28;;;14.79;50.99
13800;BME280;6971;50.028;9.258;2023-05-24T17:33:43;99866.06;;;14.35;53.26
13800;BME280;6971;50.028;9.258;2023-05-24T17:38:43;99868.94;;;14.45;53.20
13800;BME280;6971;50.028;9.258;2023-05-24T17:43:44;99871.81;;;14.42;51.61
13800;BME280;6971;50.028;9.258;2023-05-24T17:48:44;99870.34;;;14.80;51.44
13800;BME280;6971;50.028;9.258;2023-05-24T17:53:46;99876.81;;;14.47;53.95
13800;BME280;6971;50.028;9.258;2023-05-24T17:58:50;99886.25;;;14.80;52.63
13800;BME280;6971;50.028;9.258;2023-05-24T18:03:50;99886.88;;;14.42;53.75
13800;BME280;6971;50.028;9.258;2023-05-24T18:08:51;99889.72;;;14.24;56.62
13800;BME280;6971;50.028;9.258;2023-05-24T18:13:51;99888.66;;;13.83;57.72
13800;BME280;6971;50.028;9.258;2023-05-24T18:18:52;99899.00;;;13.57;60.27
13800;BME280;6971;50.028;9.258;2023-05-24T18:23:55;99901.09;;;13.36;61.88
13800;BME280;6971;50.028;9.258;2023-05-24T18:28:56;99902.59;;;12.93;63.37
13800;BME280;6971;50.028;9.258;2023-05-24T18:33:56;99905.25;;;12.61;61.28
13800;BME280;6971;50.028;9.258;2023-05-24T18:38:56;99901.41;;;12.34;68.18
13800;BME280;6971;50.028;9.258;2023-05-24T18:43:57;99891.19;;;11.93;74.10
13800;BME280;6971;50.028;9.258;2023-05-24T18:48:57;99889.84;;;11.68;76.00
13800;BME280;6971;50.028;9.258;2023-05-24T18:53:59;99898.75;;;11.30;78.78
13800;BME280;6971;50.028;9.258;2023-05-24T18:59:00;99902.53;;;11.06;80.51
13800;BME280;6971;50.028;9.258;2023-05-24T19:04:00;99905.84;;;10.73;74.10
13800;BME280;6971;50.028;9.258;2023-05-24T19:09:01;99917.88;;;10.60;79.69
13800;BME280;6971;50.028;9.258;2023-05-24T19:14:01;99924.94;;;10.19;85.98
13800;BME280;6971;50.028;9.258;2023-05-24T19:19:02;99923.66;;;9.88;88.65
13800;BME280;6971;50.028;9.258;2023-05-24T19:24:03;99931.19;;;9.54;93.54
13800;BME280;6971;50.028;9.258;2023-05-24T19:29:03;99931.53;;;9.24;98.23
13800;BME280;6971;50.028;9.258;2023-05-24T19:34:03;99948.22;;;9.00;100.00
13800;BME280;6971;50.028;9.258;2023-05-24T19:39:04;99947.50;;;8.74;100.00
13800;BME280;6971;50.028;9.258;2023-05-24T19:44:04;99949.91;;;8.57;100.00
13800;BME280;6971;50.028;9.258;2023-05-24T19:49:04;99956.59;;;8.40;100.00
13800;BME280;6971;50.028;9.258;2023-05-24T19:54:05;99961.75;;;8.18;100.00
13800;BME280;6971;50.028;9.258;2023-05-24T19:59:08;99971.97;;;8.00;100.00
13800;BME280;6971;50.028;9.258;2023-05-24T20:04:10;99988.22;;;7.86;100.00
13800;BME280;6971;50.028;9.258;2023-05-24T20:09:10;99980.00;;;7.70;100.00
13800;BME280;6971;50.028;9.258;2023-05-24T20:14:11;99981.16;;;7.61;100.00
13800;BME280;6971;50.028;9.258;2023-05-24T20:19:11;99983.38;;;7.47;100.00
13800;BME280;6971;50.028;9.258;2023-05-24T20:24:12;99987.34;;;7.31;100.00
13800;BME280;6971;50.028;9.258;2023-05-24T20:29:15;99995.22;;;7.31;100.00
13800;BME280;6971;50.028;9.258;2023-05-24T20:34:15;99992.34;;;7.39;100.00
13800;BME280;6971;50.028;9.258;2023-05-24T20:39:15;99994.84;;;7.15;100.00
13800;BME280;6971;50.028;9.258;2023-05-24T20:44:16;99993.78;;;6.92;100.00
13800;BME280;6971;50.028;9.258;2023-05-24T20:49:16;99996.63;;;6.83;100.00
13800;BME280;6971;50.028;9.258;2023-05-24T20:54:17;99985.63;;;6.72;100.00
13800;BME280;6971;50.028;9.258;2023-05-24T20:59:17;99987.59;;;6.63;100.00
13800;BME280;6971;50.028;9.258;2023-05-24T21:04:17;99988.69;;;6.56;100.00
13800;BME280;6971;50.028;9.258;2023-05-24T21:09:18;99993.44;;;6.42;100.00
13800;BME280;6971;50.028;9.258;2023-05-24T21:14:18;99991.38;;;6.55;100.00
13800;BME280;6971;50.028;9.258;2023-05-24T21:19:19;99987.94;;;6.51;100.00
13800;BME280;6971;50.028;9.258;2023-05-24T21:24:19;99992.72;;;6.36;100.00
13800;BME280;6971;50.028;9.258;2023-05-24T21:29:19;99996.59;;;6.23;100.00
13800;BME280;6971;50.028;9.258;2023-05-24T21:34:20;99997.66;;;6.14;100.00
13800;BME280;6971;50.028;9.258;2023-05-24T21:39:20;100008.31;;;6.08;100.00
13800;BME280;6971;50.028;9.258;2023-05-24T21:44:20;99993.84;;;5.93;100.00
13800;BME280;6971;50.028;9.258;2023-05-24T21:49:21;100008.31;;;6.08;100.00
13800;BME280;6971;50.028;9.258;2023-05-24T21:54:21;100006.97;;;5.90;100.00
13800;BME280;6971;50.028;9.258;2023-05-24T21:59:21;100014.25;;;5.78;100.00
13800;BME280;6971;50.028;9.258;2023-05-24T22:04:34;100013.63;;;5.68;100.00
13800;BME280;6971;50.028;9.258;2023-05-24T22:09:35;100004.75;;;5.75;100.00
13800;BME280;6971;50.028;9.258;2023-05-24T22:14:35;100008.53;;;5.64;100.00
13800;BME280;6971;50.028;9.258;2023-05-24T22:19:35;100014.38;;;5.72;100.00
13800;BME280;6971;50.028;9.258;2023-05-24T22:24:37;100006.81;;;5.61;100.00
13800;BME280;6971;50.028;9.258;2023-05-24T22:29:37;100014.91;;;5.50;100.00
13800;BME280;6971;50.028;9.258;2023-05-24T22:34:38;100015.06;;;5.44;100.00
13800;BME280;6971;50.028;9.258;2023-05-24T22:39:38;100018.63;;;5.40;100.00
13800;BME280;6971;50.028;9.258;2023-05-24T22:44:39;100012.56;;;5.39;100.00
13800;BME280;6971;50.028;9.258;2023-05-24T22:49:39;100008.94;;;5.45;100.00
13800;BME280;6971;50.028;9.258;2023-05-24T22:54:40;100011.66;;;5.40;100.00
13800;BME280;6971;50.028;9.258;2023-05-24T22:59:41;100006.47;;;5.39;100.00
13800;BME280;6971;50.028;9.258;2023-05-24T23:04:42;99999.66;;;5.31;100.00
13800;BME280;6971;50.028;9.258;2023-05-24T23:09:45;100000.25;;;5.44;100.00
13800;BME280;6971;50.028;9.258;2023-05-24T23:14:45;100000.94;;;5.53;100.00
13800;BME280;6971;50.028;9.258;2023-05-24T23:19:46;100009.63;;;5.53;100.00
13800;BME280;6971;50.028;9.258;2023-05-24T23:24:49;100004.28;;;5.58;100.00
13800;BME280;6971;50.028;9.258;2023-05-24T23:29:49;100008.44;;;5.65;100.00
13800;BME280;6971;50.028;9.258;2023-05-24T23:34:49;100005.34;;;5.49;100.00
13800;BME280;6971;50.028;9.258;2023-05-24T23:39:50;100000.00;;;5.55;100.00
13800;BME280;6971;50.028;9.258;2023-05-24T23:44:50;99999.97;;;5.57;100.00
13800;BME280;6971;50.028;9.258;2023-05-24T23:49:50;100009.03;;;5.42;100.00
13800;BME280;6971;50.028;9.258;2023-05-24T23:54:51;100016.38;;;5.64;100.00
13800;BME280;6971;50.028;9.258;2023-05-24T23:59:52;100030.41;;;5.59;100.00
